sensor_id;sensor_type;location;lat;lon;timestamp;temperature;humidity
21271;DHT22;10795;50.796;3.860;2023-04-03T00:00:41;2.20;99.90
21271;DHT22;10795;50.796;3.860;2023-04-03T00:03:20;1.90;99.90
21271;DHT22;10795;50.796;3.860;2023-04-03T00:05:56;1.90;99.90
21271;DHT22;10795;50.796;3.860;2023-04-03T00:08:37;2.00;99.90
21271;DHT22;10795;50.796;3.860;2023-04-03T00:11:13;2.00;99.90
21271;DHT22;10795;50.796;3.860;2023-04-03T00:14:10;2.00;99.90
21271;DHT22;10795;50.796;3.860;2023-04-03T00:20:05;2.00;99.90
21271;DHT22;10795;50.796;3.860;2023-04-03T00:25:33;1.80;99.90
21271;DHT22;10795;50.796;3.860;2023-04-03T00:28:12;1.80;99.90
21271;DHT22;10795;50.796;3.860;2023-04-03T00:30:50;1.70;99.90
21271;DHT22;10795;50.796;3.860;2023-04-03T00:33:40;1.70;99.90
21271;DHT22;10795;50.796;3.860;2023-04-03T00:36:46;1.60;99.90
21271;DHT22;10795;50.796;3.860;2023-04-03T00:39:29;2.40;99.90
21271;DHT22;10795;50.796;3.860;2023-04-03T00:42:04;2.20;99.90
21271;DHT22;10795;50.796;3.860;2023-04-03T00:47:28;2.60;99.90
21271;DHT22;10795;50.796;3.860;2023-04-03T01:00:05;2.30;99.90
21271;DHT22;10795;50.796;3.860;2023-04-03T01:02:58;2.50;99.90
21271;DHT22;10795;50.796;3.860;2023-04-03T01:05:51;2.80;99.90
21271;DHT22;10795;50.796;3.860;2023-04-03T01:08:23;2.60;99.90
21271;DHT22;10795;50.796;3.860;2023-04-03T01:11:21;2.50;99.90
21271;DHT22;10795;50.796;3.860;2023-04-03T01:14:01;2.50;99.90
21271;DHT22;10795;50.796;3.860;2023-04-03T01:17:01;2.50;99.90
21271;DHT22;10795;50.796;3.860;2023-04-03T01:19:30;2.40;99.90
21271;DHT22;10795;50.796;3.860;2023-04-03T01:22:14;2.30;99.90
21271;DHT22;10795;50.796;3.860;2023-04-03T01:34:46;4.20;99.90
21271;DHT22;10795;50.796;3.860;2023-04-03T01:37:39;4.50;99.90
21271;DHT22;10795;50.796;3.860;2023-04-03T01:44:43;3.90;99.90
21271;DHT22;10795;50.796;3.860;2023-04-03T01:50:35;5.30;99.90
21271;DHT22;10795;50.796;3.860;2023-04-03T02:08:11;5.70;99.90
21271;DHT22;10795;50.796;3.860;2023-04-03T02:14:46;4.30;99.90
21271;DHT22;10795;50.796;3.860;2023-04-03T02:17:46;4.70;99.90
21271;DHT22;10795;50.796;3.860;2023-04-03T02:20:52;4.60;99.90
21271;DHT22;10795;50.796;3.860;2023-04-03T02:27:40;5.00;99.90
21271;DHT22;10795;50.796;3.860;2023-04-03T02:31:01;5.40;99.90
21271;DHT22;10795;50.796;3.860;2023-04-03T02:51:15;4.60;99.90
21271;DHT22;10795;50.796;3.860;2023-04-03T02:54:20;4.10;99.90
21271;DHT22;10795;50.796;3.860;2023-04-03T02:57:13;4.20;99.90
21271;DHT22;10795;50.796;3.860;2023-04-03T03:16:17;4.30;99.90
21271;DHT22;10795;50.796;3.860;2023-04-03T03:19:38;4.40;99.90
21271;DHT22;10795;50.796;3.860;2023-04-03T03:26:18;4.80;99.90
21271;DHT22;10795;50.796;3.860;2023-04-03T03:47:28;5.20;99.90
21271;DHT22;10795;50.796;3.860;2023-04-03T03:57:36;4.60;99.90
21271;DHT22;10795;50.796;3.860;2023-04-03T04:07:39;5.00;99.90
21271;DHT22;10795;50.796;3.860;2023-04-03T04:17:00;4.90;99.90
21271;DHT22;10795;50.796;3.860;2023-04-03T04:26:52;5.20;99.90
21271;DHT22;10795;50.796;3.860;2023-04-03T04:32:45;5.20;99.90
21271;DHT22;10795;50.796;3.860;2023-04-03T04:36:12;5.10;99.90
21271;DHT22;10795;50.796;3.860;2023-04-03T04:38:47;5.30;99.90
21271;DHT22;10795;50.796;3.860;2023-04-03T04:41:52;5.00;99.90
21271;DHT22;10795;50.796;3.860;2023-04-03T04:55:34;4.90;99.90
21271;DHT22;10795;50.796;3.860;2023-04-03T04:58:10;5.00;99.90
21271;DHT22;10795;50.796;3.860;2023-04-03T05:08:05;5.00;99.90
21271;DHT22;10795;50.796;3.860;2023-04-03T05:14:30;4.80;99.90
21271;DHT22;10795;50.796;3.860;2023-04-03T05:20:15;4.60;99.90
21271;DHT22;10795;50.796;3.860;2023-04-03T05:22:56;4.70;99.90
21271;DHT22;10795;50.796;3.860;2023-04-03T05:25:36;4.60;99.90
21271;DHT22;10795;50.796;3.860;2023-04-03T05:28:20;4.70;99.90
21271;DHT22;10795;50.796;3.860;2023-04-03T05:34:19;4.70;99.90
21271;DHT22;10795;50.796;3.860;2023-04-03T05:37:31;4.70;99.90
21271;DHT22;10795;50.796;3.860;2023-04-03T05:40:39;4.50;99.90
21271;DHT22;10795;50.796;3.860;2023-04-03T05:43:31;4.60;99.90
21271;DHT22;10795;50.796;3.860;2023-04-03T05:56:38;5.00;99.90
21271;DHT22;10795;50.796;3.860;2023-04-03T06:45:14;7.80;99.90
21271;DHT22;10795;50.796;3.860;2023-04-03T06:47:58;8.10;99.90
21271;DHT22;10795;50.796;3.860;2023-04-03T06:50:44;8.30;99.90
21271;DHT22;10795;50.796;3.860;2023-04-03T06:57:18;8.80;99.90
21271;DHT22;10795;50.796;3.860;2023-04-03T06:59:57;9.00;99.90
21271;DHT22;10795;50.796;3.860;2023-04-03T07:02:38;9.30;99.90
21271;DHT22;10795;50.796;3.860;2023-04-03T07:05:12;9.60;99.90
21271;DHT22;10795;50.796;3.860;2023-04-03T07:07:44;9.90;99.90
21271;DHT22;10795;50.796;3.860;2023-04-03T07:10:10;10.10;99.90
21271;DHT22;10795;50.796;3.860;2023-04-03T07:12:36;10.30;99.90
21271;DHT22;10795;50.796;3.860;2023-04-03T07:15:04;10.50;99.90
21271;DHT22;10795;50.796;3.860;2023-04-03T07:17:30;10.80;99.90
21271;DHT22;10795;50.796;3.860;2023-04-03T07:19:56;10.80;99.90
21271;DHT22;10795;50.796;3.860;2023-04-03T07:22:22;10.70;99.90
21271;DHT22;10795;50.796;3.860;2023-04-03T07:24:48;11.00;99.90
21271;DHT22;10795;50.796;3.860;2023-04-03T07:27:13;11.50;99.90
21271;DHT22;10795;50.796;3.860;2023-04-03T07:29:39;11.00;99.90
21271;DHT22;10795;50.796;3.860;2023-04-03T07:32:05;11.60;99.90
21271;DHT22;10795;50.796;3.860;2023-04-03T07:34:32;12.00;99.90
21271;DHT22;10795;50.796;3.860;2023-04-03T07:36:58;12.10;99.90
21271;DHT22;10795;50.796;3.860;2023-04-03T07:39:24;12.30;99.90
21271;DHT22;10795;50.796;3.860;2023-04-03T07:41:50;12.40;99.90
21271;DHT22;10795;50.796;3.860;2023-04-03T07:44:17;12.50;99.90
21271;DHT22;10795;50.796;3.860;2023-04-03T07:46:43;12.70;99.90
21271;DHT22;10795;50.796;3.860;2023-04-03T07:49:08;12.50;99.90
21271;DHT22;10795;50.796;3.860;2023-04-03T07:51:34;12.40;99.90
21271;DHT22;10795;50.796;3.860;2023-04-03T07:54:00;13.10;99.90
21271;DHT22;10795;50.796;3.860;2023-04-03T07:56:26;13.10;99.90
21271;DHT22;10795;50.796;3.860;2023-04-03T07:58:52;13.50;99.90
21271;DHT22;10795;50.796;3.860;2023-04-03T08:01:17;13.70;99.90
21271;DHT22;10795;50.796;3.860;2023-04-03T08:03:43;13.90;99.90
21271;DHT22;10795;50.796;3.860;2023-04-03T08:06:09;14.00;99.90
21271;DHT22;10795;50.796;3.860;2023-04-03T08:08:35;14.30;99.90
21271;DHT22;10795;50.796;3.860;2023-04-03T08:11:02;13.90;99.90
21271;DHT22;10795;50.796;3.860;2023-04-03T08:13:28;14.20;99.90
21271;DHT22;10795;50.796;3.860;2023-04-03T08:15:54;14.40;99.90
21271;DHT22;10795;50.796;3.860;2023-04-03T08:18:21;14.40;99.90
21271;DHT22;10795;50.796;3.860;2023-04-03T08:20:50;14.80;99.90
21271;DHT22;10795;50.796;3.860;2023-04-03T08:23:17;15.10;99.90
21271;DHT22;10795;50.796;3.860;2023-04-03T08:25:43;15.30;99.90
21271;DHT22;10795;50.796;3.860;2023-04-03T08:28:09;15.50;99.90
21271;DHT22;10795;50.796;3.860;2023-04-03T08:30:35;15.50;99.90
21271;DHT22;10795;50.796;3.860;2023-04-03T08:33:02;15.60;99.90
21271;DHT22;10795;50.796;3.860;2023-04-03T08:35:27;15.40;99.90
21271;DHT22;10795;50.796;3.860;2023-04-03T08:37:53;15.60;99.90
21271;DHT22;10795;50.796;3.860;2023-04-03T08:40:19;15.80;99.90
21271;DHT22;10795;50.796;3.860;2023-04-03T08:42:58;16.10;99.90
21271;DHT22;10795;50.796;3.860;2023-04-03T08:48:12;16.40;99.90
21271;DHT22;10795;50.796;3.860;2023-04-03T08:50:49;16.30;99.90
21271;DHT22;10795;50.796;3.860;2023-04-03T08:53:22;16.50;99.90
21271;DHT22;10795;50.796;3.860;2023-04-03T08:55:52;16.70;99.90
21271;DHT22;10795;50.796;3.860;2023-04-03T08:58:19;16.60;99.90
21271;DHT22;10795;50.796;3.860;2023-04-03T09:03:13;16.40;99.90
21271;DHT22;10795;50.796;3.860;2023-04-03T09:08:25;16.90;99.90
21271;DHT22;10795;50.796;3.860;2023-04-03T09:10:54;16.90;99.90
21271;DHT22;10795;50.796;3.860;2023-04-03T09:13:30;17.00;99.90
21271;DHT22;10795;50.796;3.860;2023-04-03T09:16:12;16.60;99.90
21271;DHT22;10795;50.796;3.860;2023-04-03T09:18:42;16.90;99.90
21271;DHT22;10795;50.796;3.860;2023-04-03T09:21:17;16.80;99.90
21271;DHT22;10795;50.796;3.860;2023-04-03T09:23:47;17.00;99.90
21271;DHT22;10795;50.796;3.860;2023-04-03T09:26:16;17.00;99.90
21271;DHT22;10795;50.796;3.860;2023-04-03T09:28:45;17.10;99.90
21271;DHT22;10795;50.796;3.860;2023-04-03T09:31:24;17.30;99.90
21271;DHT22;10795;50.796;3.860;2023-04-03T09:33:53;16.60;99.90
21271;DHT22;10795;50.796;3.860;2023-04-03T09:39:04;16.90;99.90
21271;DHT22;10795;50.796;3.860;2023-04-03T09:41:30;17.10;99.90
21271;DHT22;10795;50.796;3.860;2023-04-03T09:43:57;17.00;99.90
21271;DHT22;10795;50.796;3.860;2023-04-03T09:46:30;17.00;99.90
21271;DHT22;10795;50.796;3.860;2023-04-03T09:48:57;16.90;99.90
21271;DHT22;10795;50.796;3.860;2023-04-03T09:51:27;16.90;99.90
21271;DHT22;10795;50.796;3.860;2023-04-03T09:53:54;17.00;99.90
21271;DHT22;10795;50.796;3.860;2023-04-03T09:56:21;16.70;99.90
21271;DHT22;10795;50.796;3.860;2023-04-03T09:58:49;16.50;99.90
21271;DHT22;10795;50.796;3.860;2023-04-03T10:01:23;16.40;99.90
21271;DHT22;10795;50.796;3.860;2023-04-03T10:04:09;16.80;99.90
21271;DHT22;10795;50.796;3.860;2023-04-03T10:06:40;17.00;99.90
21271;DHT22;10795;50.796;3.860;2023-04-03T10:09:16;16.80;99.90
21271;DHT22;10795;50.796;3.860;2023-04-03T10:12:03;17.00;99.90
21271;DHT22;10795;50.796;3.860;2023-04-03T10:14:30;17.20;99.90
21271;DHT22;10795;50.796;3.860;2023-04-03T10:16:59;16.40;99.90
21271;DHT22;10795;50.796;3.860;2023-04-03T10:21:59;17.00;99.90
21271;DHT22;10795;50.796;3.860;2023-04-03T10:31:52;16.80;99.90
21271;DHT22;10795;50.796;3.860;2023-04-03T10:34:33;17.20;99.90
21271;DHT22;10795;50.796;3.860;2023-04-03T10:47:17;17.20;99.90
21271;DHT22;10795;50.796;3.860;2023-04-03T10:49:51;17.00;99.90
21271;DHT22;10795;50.796;3.860;2023-04-03T10:52:25;17.10;99.90
21271;DHT22;10795;50.796;3.860;2023-04-03T10:55:02;17.30;99.90
21271;DHT22;10795;50.796;3.860;2023-04-03T10:57:32;17.30;99.90
21271;DHT22;10795;50.796;3.860;2023-04-03T11:00:05;17.40;99.90
21271;DHT22;10795;50.796;3.860;2023-04-03T11:05:37;17.30;99.90
21271;DHT22;10795;50.796;3.860;2023-04-03T11:08:09;17.50;99.90
21271;DHT22;10795;50.796;3.860;2023-04-03T11:10:39;17.40;99.90
21271;DHT22;10795;50.796;3.860;2023-04-03T11:15:32;17.40;99.90
21271;DHT22;10795;50.796;3.860;2023-04-03T11:18:02;17.70;99.90
21271;DHT22;10795;50.796;3.860;2023-04-03T11:20:30;17.80;99.90
21271;DHT22;10795;50.796;3.860;2023-04-03T11:25:24;17.70;99.90
21271;DHT22;10795;50.796;3.860;2023-04-03T11:27:54;17.40;99.90
21271;DHT22;10795;50.796;3.860;2023-04-03T11:30:24;17.50;99.90
21271;DHT22;10795;50.796;3.860;2023-04-03T11:33:07;17.00;99.90
21271;DHT22;10795;50.796;3.860;2023-04-03T11:35:41;17.30;99.90
21271;DHT22;10795;50.796;3.860;2023-04-03T11:38:14;17.50;99.90
21271;DHT22;10795;50.796;3.860;2023-04-03T11:40:43;17.30;99.90
21271;DHT22;10795;50.796;3.860;2023-04-03T11:43:28;17.30;99.90
21271;DHT22;10795;50.796;3.860;2023-04-03T11:46:05;17.50;99.90
21271;DHT22;10795;50.796;3.860;2023-04-03T11:51:01;17.20;99.90
21271;DHT22;10795;50.796;3.860;2023-04-03T11:56:00;17.40;99.90
21271;DHT22;10795;50.796;3.860;2023-04-03T11:58:30;17.50;99.90
21271;DHT22;10795;50.796;3.860;2023-04-03T12:01:04;17.30;99.90
21271;DHT22;10795;50.796;3.860;2023-04-03T12:03:32;17.30;99.90
21271;DHT22;10795;50.796;3.860;2023-04-03T12:13:35;17.50;99.90
21271;DHT22;10795;50.796;3.860;2023-04-03T12:16:01;17.10;99.90
21271;DHT22;10795;50.796;3.860;2023-04-03T12:18:43;17.40;99.90
21271;DHT22;10795;50.796;3.860;2023-04-03T12:21:10;17.40;99.90
21271;DHT22;10795;50.796;3.860;2023-04-03T12:23:36;17.50;99.90
21271;DHT22;10795;50.796;3.860;2023-04-03T12:26:21;17.30;99.90
21271;DHT22;10795;50.796;3.860;2023-04-03T12:28:48;17.20;99.90
21271;DHT22;10795;50.796;3.860;2023-04-03T12:31:15;16.90;99.90
21271;DHT22;10795;50.796;3.860;2023-04-03T12:36:33;17.10;99.90
21271;DHT22;10795;50.796;3.860;2023-04-03T12:39:10;17.10;99.90
21271;DHT22;10795;50.796;3.860;2023-04-03T12:46:50;17.00;99.90
21271;DHT22;10795;50.796;3.860;2023-04-03T12:51:54;17.00;99.90
21271;DHT22;10795;50.796;3.860;2023-04-03T12:54:22;17.00;99.90
21271;DHT22;10795;50.796;3.860;2023-04-03T12:56:49;16.80;99.90
21271;DHT22;10795;50.796;3.860;2023-04-03T12:59:20;16.80;99.90
21271;DHT22;10795;50.796;3.860;2023-04-03T13:01:56;16.60;99.90
21271;DHT22;10795;50.796;3.860;2023-04-03T13:04:22;16.60;99.90
21271;DHT22;10795;50.796;3.860;2023-04-03T13:06:48;16.60;99.90
21271;DHT22;10795;50.796;3.860;2023-04-03T13:11:50;16.70;99.90
21271;DHT22;10795;50.796;3.860;2023-04-03T13:14:18;16.60;99.90
21271;DHT22;10795;50.796;3.860;2023-04-03T13:19:39;16.50;99.90
21271;DHT22;10795;50.796;3.860;2023-04-03T13:22:08;16.60;99.90
21271;DHT22;10795;50.796;3.860;2023-04-03T13:24:35;16.50;99.90
21271;DHT22;10795;50.796;3.860;2023-04-03T13:27:02;16.40;99.90
21271;DHT22;10795;50.796;3.860;2023-04-03T13:29:32;16.50;99.90
21271;DHT22;10795;50.796;3.860;2023-04-03T13:32:01;16.30;99.90
21271;DHT22;10795;50.796;3.860;2023-04-03T13:34:28;16.30;99.90
21271;DHT22;10795;50.796;3.860;2023-04-03T13:36:58;16.20;99.90
21271;DHT22;10795;50.796;3.860;2023-04-03T13:39:28;16.00;99.90
21271;DHT22;10795;50.796;3.860;2023-04-03T13:41:55;16.10;99.90
21271;DHT22;10795;50.796;3.860;2023-04-03T13:46:47;15.70;99.90
21271;DHT22;10795;50.796;3.860;2023-04-03T13:52:25;15.30;99.90
21271;DHT22;10795;50.796;3.860;2023-04-03T13:54:51;15.80;99.90
21271;DHT22;10795;50.796;3.860;2023-04-03T13:57:17;15.80;99.90
21271;DHT22;10795;50.796;3.860;2023-04-03T13:59:43;15.80;99.90
21271;DHT22;10795;50.796;3.860;2023-04-03T14:04:45;15.60;99.90
21271;DHT22;10795;50.796;3.860;2023-04-03T14:07:12;15.60;99.90
21271;DHT22;10795;50.796;3.860;2023-04-03T14:09:37;15.40;99.90
21271;DHT22;10795;50.796;3.860;2023-04-03T14:12:07;15.50;99.90
21271;DHT22;10795;50.796;3.860;2023-04-03T14:14:34;15.50;99.90
21271;DHT22;10795;50.796;3.860;2023-04-03T14:17:01;15.60;99.90
21271;DHT22;10795;50.796;3.860;2023-04-03T14:19:31;15.50;99.90
21271;DHT22;10795;50.796;3.860;2023-04-03T14:21:58;14.90;99.90
21271;DHT22;10795;50.796;3.860;2023-04-03T14:24:23;15.20;99.90
21271;DHT22;10795;50.796;3.860;2023-04-03T14:26:50;15.30;99.90
21271;DHT22;10795;50.796;3.860;2023-04-03T14:29:17;15.10;99.90
21271;DHT22;10795;50.796;3.860;2023-04-03T14:31:43;15.10;99.90
21271;DHT22;10795;50.796;3.860;2023-04-03T14:34:09;15.20;99.90
21271;DHT22;10795;50.796;3.860;2023-04-03T14:36:35;14.90;99.90
21271;DHT22;10795;50.796;3.860;2023-04-03T14:39:03;15.00;99.90
21271;DHT22;10795;50.796;3.860;2023-04-03T14:41:29;15.00;99.90
21271;DHT22;10795;50.796;3.860;2023-04-03T14:43:55;15.00;99.90
21271;DHT22;10795;50.796;3.860;2023-04-03T14:46:36;14.90;99.90
21271;DHT22;10795;50.796;3.860;2023-04-03T14:49:03;14.70;99.90
21271;DHT22;10795;50.796;3.860;2023-04-03T14:51:33;14.70;99.90
21271;DHT22;10795;50.796;3.860;2023-04-03T14:53:59;14.70;99.90
21271;DHT22;10795;50.796;3.860;2023-04-03T14:56:27;14.60;99.90
21271;DHT22;10795;50.796;3.860;2023-04-03T14:58:57;14.60;99.90
21271;DHT22;10795;50.796;3.860;2023-04-03T15:01:24;14.60;99.90
21271;DHT22;10795;50.796;3.860;2023-04-03T15:03:50;14.50;99.90
21271;DHT22;10795;50.796;3.860;2023-04-03T15:06:16;14.40;99.90
21271;DHT22;10795;50.796;3.860;2023-04-03T15:08:42;14.40;99.90
21271;DHT22;10795;50.796;3.860;2023-04-03T15:11:09;14.30;99.90
21271;DHT22;10795;50.796;3.860;2023-04-03T15:13:35;14.00;99.90
21271;DHT22;10795;50.796;3.860;2023-04-03T15:16:01;14.00;99.90
21271;DHT22;10795;50.796;3.860;2023-04-03T15:18:27;14.10;99.90
21271;DHT22;10795;50.796;3.860;2023-04-03T15:20:53;14.00;99.90
21271;DHT22;10795;50.796;3.860;2023-04-03T15:23:19;14.00;99.90
21271;DHT22;10795;50.796;3.860;2023-04-03T15:25:46;13.90;99.90
21271;DHT22;10795;50.796;3.860;2023-04-03T15:28:18;13.80;99.90
21271;DHT22;10795;50.796;3.860;2023-04-03T15:30:44;13.70;99.90
21271;DHT22;10795;50.796;3.860;2023-04-03T15:33:10;13.60;99.90
21271;DHT22;10795;50.796;3.860;2023-04-03T15:35:36;13.60;99.90
21271;DHT22;10795;50.796;3.860;2023-04-03T15:38:01;13.60;99.90
21271;DHT22;10795;50.796;3.860;2023-04-03T15:40:27;13.60;99.90
21271;DHT22;10795;50.796;3.860;2023-04-03T15:42:53;13.40;99.90
21271;DHT22;10795;50.796;3.860;2023-04-03T15:45:19;13.30;99.90
21271;DHT22;10795;50.796;3.860;2023-04-03T15:47:46;13.30;99.90
21271;DHT22;10795;50.796;3.860;2023-04-03T15:50:12;13.30;99.90
21271;DHT22;10795;50.796;3.860;2023-04-03T15:52:37;13.30;99.90
21271;DHT22;10795;50.796;3.860;2023-04-03T15:55:03;13.20;99.90
21271;DHT22;10795;50.796;3.860;2023-04-03T15:57:29;13.10;99.90
21271;DHT22;10795;50.796;3.860;2023-04-03T15:59:55;13.10;99.90
21271;DHT22;10795;50.796;3.860;2023-04-03T16:02:22;13.00;99.90
21271;DHT22;10795;50.796;3.860;2023-04-03T16:04:48;12.90;99.90
21271;DHT22;10795;50.796;3.860;2023-04-03T16:07:14;12.80;99.90
21271;DHT22;10795;50.796;3.860;2023-04-03T16:09:39;12.80;99.90
21271;DHT22;10795;50.796;3.860;2023-04-03T16:12:05;12.70;99.90
21271;DHT22;10795;50.796;3.860;2023-04-03T16:14:31;12.60;99.90
21271;DHT22;10795;50.796;3.860;2023-04-03T16:16:57;12.60;99.90
21271;DHT22;10795;50.796;3.860;2023-04-03T16:19:23;12.60;99.90
21271;DHT22;10795;50.796;3.860;2023-04-03T16:21:49;12.50;99.90
21271;DHT22;10795;50.796;3.860;2023-04-03T16:24:15;12.50;99.90
21271;DHT22;10795;50.796;3.860;2023-04-03T16:26:41;12.50;99.90
21271;DHT22;10795;50.796;3.860;2023-04-03T16:29:07;12.40;99.90
21271;DHT22;10795;50.796;3.860;2023-04-03T16:31:32;12.40;99.90
21271;DHT22;10795;50.796;3.860;2023-04-03T16:33:58;12.40;99.90
21271;DHT22;10795;50.796;3.860;2023-04-03T16:36:25;12.30;99.90
21271;DHT22;10795;50.796;3.860;2023-04-03T16:38:51;12.40;99.90
21271;DHT22;10795;50.796;3.860;2023-04-03T16:41:17;12.20;99.90
21271;DHT22;10795;50.796;3.860;2023-04-03T16:43:45;12.20;99.90
21271;DHT22;10795;50.796;3.860;2023-04-03T16:46:11;12.20;99.90
21271;DHT22;10795;50.796;3.860;2023-04-03T16:48:36;12.10;99.90
21271;DHT22;10795;50.796;3.860;2023-04-03T16:51:02;12.10;99.90
21271;DHT22;10795;50.796;3.860;2023-04-03T16:53:28;12.10;99.90
21271;DHT22;10795;50.796;3.860;2023-04-03T16:55:54;12.00;99.90
21271;DHT22;10795;50.796;3.860;2023-04-03T16:58:20;12.00;99.90
21271;DHT22;10795;50.796;3.860;2023-04-03T17:00:45;12.00;99.90
21271;DHT22;10795;50.796;3.860;2023-04-03T17:03:12;11.90;99.90
21271;DHT22;10795;50.796;3.860;2023-04-03T17:05:38;11.90;99.90
21271;DHT22;10795;50.796;3.860;2023-04-03T17:08:04;11.90;99.90
21271;DHT22;10795;50.796;3.860;2023-04-03T17:10:30;11.70;99.90
21271;DHT22;10795;50.796;3.860;2023-04-03T17:12:55;11.70;99.90
21271;DHT22;10795;50.796;3.860;2023-04-03T17:15:21;11.80;99.90
21271;DHT22;10795;50.796;3.860;2023-04-03T17:17:49;11.70;99.90
21271;DHT22;10795;50.796;3.860;2023-04-03T17:20:16;11.70;99.90
21271;DHT22;10795;50.796;3.860;2023-04-03T17:22:42;11.60;99.90
21271;DHT22;10795;50.796;3.860;2023-04-03T17:25:09;11.70;99.90
21271;DHT22;10795;50.796;3.860;2023-04-03T17:27:35;11.50;99.90
21271;DHT22;10795;50.796;3.860;2023-04-03T17:30:01;11.50;99.90
21271;DHT22;10795;50.796;3.860;2023-04-03T17:32:27;11.60;99.90
21271;DHT22;10795;50.796;3.860;2023-04-03T17:34:53;11.60;99.90
21271;DHT22;10795;50.796;3.860;2023-04-03T17:37:18;11.50;99.90
21271;DHT22;10795;50.796;3.860;2023-04-03T17:39:44;11.60;99.90
21271;DHT22;10795;50.796;3.860;2023-04-03T17:42:11;11.50;99.90
21271;DHT22;10795;50.796;3.860;2023-04-03T17:44:39;11.50;99.90
21271;DHT22;10795;50.796;3.860;2023-04-03T17:47:05;11.40;99.90
21271;DHT22;10795;50.796;3.860;2023-04-03T17:49:31;11.40;99.90
21271;DHT22;10795;50.796;3.860;2023-04-03T17:51:58;11.40;99.90
21271;DHT22;10795;50.796;3.860;2023-04-03T17:54:23;11.40;99.90
21271;DHT22;10795;50.796;3.860;2023-04-03T17:56:49;11.40;99.90
21271;DHT22;10795;50.796;3.860;2023-04-03T17:59:15;11.40;99.90
21271;DHT22;10795;50.796;3.860;2023-04-03T18:01:44;11.30;99.90
21271;DHT22;10795;50.796;3.860;2023-04-03T18:04:11;11.20;99.90
21271;DHT22;10795;50.796;3.860;2023-04-03T18:06:48;11.20;99.90
21271;DHT22;10795;50.796;3.860;2023-04-03T18:09:16;11.20;99.90
21271;DHT22;10795;50.796;3.860;2023-04-03T18:11:43;11.20;99.90
21271;DHT22;10795;50.796;3.860;2023-04-03T18:14:09;11.20;99.90
21271;DHT22;10795;50.796;3.860;2023-04-03T18:16:35;11.00;99.90
21271;DHT22;10795;50.796;3.860;2023-04-03T18:19:01;11.10;99.90
21271;DHT22;10795;50.796;3.860;2023-04-03T18:21:28;10.90;99.90
21271;DHT22;10795;50.796;3.860;2023-04-03T18:23:56;10.80;99.90
21271;DHT22;10795;50.796;3.860;2023-04-03T18:26:24;10.90;99.90
21271;DHT22;10795;50.796;3.860;2023-04-03T18:28:58;10.80;99.90
21271;DHT22;10795;50.796;3.860;2023-04-03T18:31:27;10.90;99.90
21271;DHT22;10795;50.796;3.860;2023-04-03T18:33:58;10.90;99.90
21271;DHT22;10795;50.796;3.860;2023-04-03T18:36:24;10.80;99.90
21271;DHT22;10795;50.796;3.860;2023-04-03T18:38:51;10.60;99.90
21271;DHT22;10795;50.796;3.860;2023-04-03T18:41:17;10.60;99.90
21271;DHT22;10795;50.796;3.860;2023-04-03T18:43:46;10.70;99.90
21271;DHT22;10795;50.796;3.860;2023-04-03T18:46:11;10.70;99.90
21271;DHT22;10795;50.796;3.860;2023-04-03T18:48:40;10.50;99.90
21271;DHT22;10795;50.796;3.860;2023-04-03T18:51:09;10.40;99.90
21271;DHT22;10795;50.796;3.860;2023-04-03T18:53:35;10.40;99.90
21271;DHT22;10795;50.796;3.860;2023-04-03T18:56:04;10.30;99.90
21271;DHT22;10795;50.796;3.860;2023-04-03T18:58:32;10.20;99.90
21271;DHT22;10795;50.796;3.860;2023-04-03T19:01:00;10.20;99.90
21271;DHT22;10795;50.796;3.860;2023-04-03T19:03:26;10.20;99.90
21271;DHT22;10795;50.796;3.860;2023-04-03T19:05:53;10.20;99.90
21271;DHT22;10795;50.796;3.860;2023-04-03T19:08:18;10.30;99.90
21271;DHT22;10795;50.796;3.860;2023-04-03T19:10:44;10.30;99.90
21271;DHT22;10795;50.796;3.860;2023-04-03T19:13:10;10.10;99.90
21271;DHT22;10795;50.796;3.860;2023-04-03T19:15:36;10.00;99.90
21271;DHT22;10795;50.796;3.860;2023-04-03T19:18:04;10.00;99.90
21271;DHT22;10795;50.796;3.860;2023-04-03T19:22:59;10.10;99.90
21271;DHT22;10795;50.796;3.860;2023-04-03T19:25:24;10.00;99.90
21271;DHT22;10795;50.796;3.860;2023-04-03T19:27:50;9.90;99.90
21271;DHT22;10795;50.796;3.860;2023-04-03T19:30:16;9.90;99.90
21271;DHT22;10795;50.796;3.860;2023-04-03T19:32:42;9.90;99.90
21271;DHT22;10795;50.796;3.860;2023-04-03T19:35:08;9.80;99.90
21271;DHT22;10795;50.796;3.860;2023-04-03T19:37:35;9.70;99.90
21271;DHT22;10795;50.796;3.860;2023-04-03T19:40:01;9.80;99.90
21271;DHT22;10795;50.796;3.860;2023-04-03T19:42:30;9.70;99.90
21271;DHT22;10795;50.796;3.860;2023-04-03T19:44:56;9.70;99.90
21271;DHT22;10795;50.796;3.860;2023-04-03T19:47:40;9.60;99.90
21271;DHT22;10795;50.796;3.860;2023-04-03T20:23:33;9.30;99.90
21271;DHT22;10795;50.796;3.860;2023-04-03T20:39:31;9.20;99.90
21271;DHT22;10795;50.796;3.860;2023-04-03T20:53:03;9.00;99.90
21271;DHT22;10795;50.796;3.860;2023-04-03T20:55:27;8.80;99.90
21271;DHT22;10795;50.796;3.860;2023-04-03T20:58:07;8.90;99.90
21271;DHT22;10795;50.796;3.860;2023-04-03T21:04:33;8.80;99.90
21271;DHT22;10795;50.796;3.860;2023-04-03T21:21:05;8.50;99.90
21271;DHT22;10795;50.796;3.860;2023-04-03T21:23:45;8.50;99.90
21271;DHT22;10795;50.796;3.860;2023-04-03T21:26:16;8.50;99.90
21271;DHT22;10795;50.796;3.860;2023-04-03T21:28:54;8.50;99.90
21271;DHT22;10795;50.796;3.860;2023-04-03T21:38:08;8.40;99.90
21271;DHT22;10795;50.796;3.860;2023-04-03T21:48:14;8.50;99.90
21271;DHT22;10795;50.796;3.860;2023-04-03T21:54:15;8.10;99.90
21271;DHT22;10795;50.796;3.860;2023-04-03T22:02:42;8.10;99.90
21271;DHT22;10795;50.796;3.860;2023-04-03T22:05:32;8.10;99.90
21271;DHT22;10795;50.796;3.860;2023-04-03T22:48:05;7.90;99.90
21271;DHT22;10795;50.796;3.860;2023-04-03T22:50:39;7.60;99.90
21271;DHT22;10795;50.796;3.860;2023-04-03T23:12:12;7.50;99.90
21271;DHT22;10795;50.796;3.860;2023-04-03T23:17:58;7.70;99.90
21271;DHT22;10795;50.796;3.860;2023-04-03T23:24:35;7.60;99.90
21271;DHT22;10795;50.796;3.860;2023-04-03T23:27:14;7.60;99.90
21271;DHT22;10795;50.796;3.860;2023-04-03T23:36:19;7.60;99.90
21271;DHT22;10795;50.796;3.860;2023-04-03T23:38:47;7.10;99.90
21271;DHT22;10795;50.796;3.860;2023-04-03T23:41:19;7.10;99.90
21271;DHT22;10795;50.796;3.860;2023-04-03T23:47:26;7.40;99.90
21271;DHT22;10795;50.796;3.860;2023-04-03T23:50:23;7.50;99.90
21271;DHT22;10795;50.796;3.860;2023-04-03T23:53:09;7.60;99.90
21271;DHT22;10795;50.796;3.860;2023-04-03T23:55:45;7.40;99.90
21271;DHT22;10795;50.796;3.860;2023-04-03T23:58:14;7.10;99.90
